createdAt,value
2019-01-24T00:01:50.237Z,11.37
2019-01-24T00:04:20.522Z,15.13
2019-01-24T00:06:51.492Z,18.60
2019-01-24T00:09:21.802Z,23.37
2019-01-24T00:11:52.125Z,35.10
2019-01-24T00:14:22.480Z,32.87
2019-01-24T00:16:53.239Z,31.87
2019-01-24T00:19:23.538Z,27.10
2019-01-24T00:21:54.225Z,28.37
2019-01-24T00:24:25.215Z,17.97
2019-01-24T00:26:55.555Z,27.73
2019-01-24T00:29:26.084Z,16.87
2019-01-24T00:31:56.644Z,14.83
2019-01-24T00:34:26.923Z,11.10
2019-01-24T00:36:57.710Z,9.17
2019-01-24T00:39:27.982Z,11.93
2019-01-24T00:41:58.623Z,12.63
2019-01-24T00:44:29.000Z,10.47
2019-01-24T00:46:59.322Z,11.93
2019-01-24T00:49:29.806Z,9.47
2019-01-24T00:52:00.745Z,13.30
2019-01-24T00:54:31.027Z,14.57
2019-01-24T00:57:01.356Z,9.07
2019-01-24T00:59:32.021Z,13.10
2019-01-24T01:02:02.359Z,17.70
2019-01-24T01:04:32.736Z,13.90
2019-01-24T01:07:04.613Z,7.00
2019-01-24T01:09:34.939Z,3.60
2019-01-24T01:12:05.717Z,3.60
2019-01-24T01:14:35.972Z,5.50
2019-01-24T01:17:06.377Z,4.27
2019-01-24T01:19:36.885Z,4.70
2019-01-24T01:22:07.815Z,4.23
2019-01-24T01:24:38.093Z,3.50
2019-01-24T01:27:09.063Z,3.60
2019-01-24T01:29:39.594Z,4.23
2019-01-24T01:32:10.019Z,3.93
2019-01-24T01:34:40.670Z,4.53
2019-01-24T01:37:11.852Z,2.93
2019-01-24T01:39:43.263Z,3.27
2019-01-24T01:42:13.567Z,2.43
2019-01-24T01:44:43.833Z,4.20
2019-01-24T01:47:14.645Z,4.10
2019-01-24T01:49:45.131Z,3.57
2019-01-24T01:52:15.432Z,2.90
2019-01-24T01:54:46.038Z,3.33
2019-01-24T01:57:16.706Z,6.17
2019-01-24T01:59:47.057Z,15.10
2019-01-24T02:02:17.872Z,14.47
2019-01-24T02:04:48.256Z,15.57
2019-01-24T02:07:19.877Z,18.83
2019-01-24T02:09:50.398Z,16.50
2019-01-24T02:12:20.803Z,15.40
2019-01-24T02:14:52.509Z,18.87
2019-01-24T02:17:23.282Z,18.30
2019-01-24T02:19:53.552Z,17.93
2019-01-24T02:22:24.321Z,18.93
2019-01-24T02:24:54.957Z,12.23
2019-01-24T02:27:25.282Z,6.27
2019-01-24T02:29:55.716Z,4.07
2019-01-24T02:32:26.433Z,2.23
2019-01-24T02:34:56.708Z,1.27
2019-01-24T02:37:27.370Z,1.60
2019-01-24T02:39:58.120Z,1.40
2019-01-24T02:42:28.437Z,1.80
2019-01-24T02:44:59.102Z,1.47
2019-01-24T02:47:30.637Z,1.40
2019-01-24T02:50:01.084Z,1.40
2019-01-24T02:52:31.841Z,2.40
2019-01-24T02:55:02.120Z,1.30
2019-01-24T02:57:32.429Z,4.83
2019-01-24T03:00:03.099Z,1.13
2019-01-24T03:02:34.581Z,1.53
2019-01-24T03:05:06.364Z,4.70
2019-01-24T03:07:37.013Z,1.03
2019-01-24T03:10:08.875Z,2.00
2019-01-24T03:12:39.203Z,4.47
2019-01-24T03:15:11.399Z,1.40
2019-01-24T03:17:41.929Z,2.03
2019-01-24T03:20:12.858Z,1.20
2019-01-24T03:22:43.171Z,2.43
2019-01-24T03:25:13.979Z,2.77
2019-01-24T03:27:44.696Z,1.90
2019-01-24T03:30:24.648Z,1.70
2019-01-24T03:32:54.988Z,1.40
2019-01-24T03:35:27.161Z,2.47
2019-01-24T03:37:57.735Z,8.23
2019-01-24T03:40:28.007Z,3.03
2019-01-24T03:42:58.882Z,2.00
2019-01-24T03:45:29.514Z,1.40
2019-01-24T03:47:59.863Z,1.53
2019-01-24T03:50:30.321Z,0.80
2019-01-24T03:53:00.633Z,0.80
2019-01-24T03:55:31.133Z,2.07
2019-01-24T03:58:01.887Z,1.57
2019-01-24T04:00:33.136Z,2.60
2019-01-24T04:03:03.880Z,2.07
2019-01-24T04:05:34.479Z,0.90
2019-01-24T04:08:04.809Z,0.83
2019-01-24T04:10:36.598Z,0.70
2019-01-24T04:13:07.021Z,0.93
2019-01-24T04:15:37.325Z,1.00
2019-01-24T04:18:07.711Z,1.07
2019-01-24T04:20:38.524Z,1.60
2019-01-24T04:23:08.805Z,1.10
2019-01-24T04:25:39.065Z,3.40
2019-01-24T04:28:09.802Z,5.87
2019-01-24T04:30:40.160Z,1.77
2019-01-24T04:33:10.466Z,2.67
2019-01-24T04:35:41.289Z,2.30
2019-01-24T04:38:11.778Z,2.17
2019-01-24T04:40:42.083Z,4.97
2019-01-24T04:43:12.443Z,1.10
2019-01-24T04:45:42.871Z,1.13
2019-01-24T04:48:13.142Z,1.77
2019-01-24T04:50:43.644Z,2.63
2019-01-24T04:53:14.104Z,0.87
2019-01-24T04:55:44.764Z,1.10
2019-01-24T04:58:15.562Z,1.00
2019-01-24T05:00:45.840Z,1.63
2019-01-24T05:03:16.513Z,2.07
2019-01-24T05:05:47.131Z,3.47
2019-01-24T05:08:17.434Z,3.23
2019-01-24T05:10:47.989Z,1.13
2019-01-24T05:13:18.588Z,2.33
2019-01-24T05:15:48.926Z,1.30
2019-01-24T05:18:19.268Z,2.90
2019-01-24T05:20:49.885Z,2.90
2019-01-24T05:23:20.222Z,2.33
2019-01-24T05:25:50.830Z,1.40
2019-01-24T05:28:21.143Z,2.37
2019-01-24T05:30:51.689Z,4.03
2019-01-24T05:33:22.241Z,2.50
2019-01-24T05:35:52.529Z,3.50
2019-01-24T05:38:22.934Z,2.10
2019-01-24T05:40:53.617Z,5.20
2019-01-24T05:43:24.011Z,3.37
2019-01-24T05:45:54.313Z,3.63
2019-01-24T05:48:24.721Z,2.37
2019-01-24T05:50:55.182Z,3.57
2019-01-24T05:53:25.609Z,2.50
2019-01-24T05:55:56.366Z,2.83
2019-01-24T05:58:26.753Z,2.63
2019-01-24T06:00:57.432Z,4.83
2019-01-24T06:03:27.762Z,4.87
2019-01-24T06:05:58.057Z,2.80
2019-01-24T06:08:28.869Z,21.87
2019-01-24T06:10:59.425Z,55.63
2019-01-24T06:13:30.656Z,12.90
2019-01-24T06:16:01.080Z,10.23
2019-01-24T06:18:33.064Z,10.33
2019-01-24T06:21:03.420Z,15.30
2019-01-24T06:23:34.035Z,16.40
2019-01-24T06:26:04.858Z,26.73
2019-01-24T06:28:35.368Z,19.30
2019-01-24T06:31:05.800Z,20.23
2019-01-24T06:33:36.090Z,17.90
2019-01-24T06:36:07.011Z,18.37
2019-01-24T06:38:38.402Z,19.10
2019-01-24T06:41:08.720Z,15.43
2019-01-24T06:43:39.105Z,16.97
2019-01-24T06:46:09.502Z,16.53
2019-01-24T06:48:39.768Z,29.83
2019-01-24T06:51:10.445Z,18.47
2019-01-24T06:53:41.016Z,41.57
2019-01-24T06:56:11.377Z,47.80
2019-01-24T06:58:41.812Z,26.63
2019-01-24T07:01:12.099Z,26.97
2019-01-24T07:03:42.753Z,20.67
2019-01-24T07:06:13.427Z,25.30
2019-01-24T07:08:43.717Z,34.57
2019-01-24T07:11:14.561Z,30.90
2019-01-24T07:13:45.039Z,32.13
2019-01-24T07:16:15.527Z,27.53
2019-01-24T07:18:45.852Z,30.67
2019-01-24T07:21:16.667Z,27.07
2019-01-24T07:23:46.951Z,24.97
2019-01-24T07:26:17.298Z,28.23
2019-01-24T07:28:47.916Z,37.13
2019-01-24T07:31:18.575Z,28.40
2019-01-24T07:33:49.304Z,26.43
2019-01-24T07:36:19.631Z,24.17
2019-01-24T07:38:50.041Z,28.93
2019-01-24T07:41:20.723Z,16.43
2019-01-24T07:43:50.983Z,23.80
2019-01-24T07:46:21.306Z,10.87
2019-01-24T07:48:52.389Z,9.67
2019-01-24T07:51:22.904Z,9.83
2019-01-24T07:53:53.186Z,5.73
2019-01-24T07:56:24.099Z,5.63
2019-01-24T07:58:54.541Z,5.53
2019-01-24T08:01:24.857Z,5.27
2019-01-24T08:03:55.566Z,6.37
2019-01-24T08:06:25.923Z,5.20
2019-01-24T08:08:56.624Z,7.90
2019-01-24T08:11:26.947Z,7.87
2019-01-24T08:13:57.229Z,9.03
2019-01-24T08:16:27.626Z,6.77
2019-01-24T08:18:58.072Z,6.10
2019-01-24T08:21:28.361Z,5.83
2019-01-24T08:23:59.019Z,6.90
2019-01-24T08:26:29.631Z,8.27
2019-01-24T08:29:00.047Z,10.70
2019-01-24T08:31:30.809Z,7.87
2019-01-24T08:34:01.547Z,8.57
2019-01-24T08:36:31.840Z,19.47
2019-01-24T08:39:02.458Z,29.73
2019-01-24T08:41:33.129Z,38.10
2019-01-24T08:44:03.557Z,27.50
2019-01-24T08:46:33.888Z,34.33
2019-01-24T08:49:04.996Z,46.00
2019-01-24T08:51:35.320Z,29.30
2019-01-24T08:54:05.926Z,29.80
2019-01-24T08:56:36.636Z,28.47
2019-01-24T08:59:07.232Z,25.47
2019-01-24T09:01:37.525Z,21.07
2019-01-24T09:04:08.267Z,19.80
2019-01-24T09:06:39.014Z,15.93
2019-01-24T09:09:10.267Z,18.57
2019-01-24T09:11:40.864Z,19.00
2019-01-24T09:14:11.145Z,13.77
2019-01-24T09:16:41.780Z,19.90
2019-01-24T09:19:12.171Z,23.73
2019-01-24T09:21:42.452Z,18.43
2019-01-24T09:24:13.283Z,14.73
2019-01-24T09:26:43.951Z,22.27
2019-01-24T09:29:15.297Z,17.43
2019-01-24T09:31:45.784Z,20.77
2019-01-24T09:34:16.524Z,16.47
2019-01-24T09:36:46.820Z,21.83
2019-01-24T09:39:17.388Z,16.47
2019-01-24T09:41:47.684Z,15.83
2019-01-24T09:44:18.489Z,17.93
2019-01-24T09:46:49.216Z,16.37
2019-01-24T09:49:19.591Z,15.87
2019-01-24T09:51:50.210Z,13.43
2019-01-24T09:54:20.619Z,14.50
2019-01-24T09:56:50.913Z,21.80
2019-01-24T09:59:21.458Z,21.07
2019-01-24T10:01:52.016Z,22.20
2019-01-24T10:04:22.399Z,21.90
2019-01-24T10:06:52.695Z,11.40
2019-01-24T10:09:23.437Z,15.83
2019-01-24T10:11:53.718Z,16.47
2019-01-24T10:14:24.650Z,16.33
2019-01-24T10:16:54.947Z,14.30
2019-01-24T10:19:25.512Z,12.67
2019-01-24T10:21:56.242Z,15.70
2019-01-24T10:24:26.725Z,15.40
2019-01-24T10:26:57.016Z,11.53
2019-01-24T10:29:27.433Z,10.43
2019-01-24T10:31:57.724Z,16.37
2019-01-24T10:34:28.065Z,15.30
2019-01-24T10:36:58.704Z,13.57
2019-01-24T10:39:29.226Z,12.87
2019-01-24T10:41:59.529Z,18.17
2019-01-24T10:44:30.289Z,16.67
2019-01-24T10:47:00.845Z,19.10
2019-01-24T10:49:31.418Z,14.70
2019-01-24T10:52:05.414Z,13.27
2019-01-24T10:54:35.746Z,12.40
2019-01-24T10:57:06.312Z,12.93
2019-01-24T10:59:37.021Z,11.47
2019-01-24T11:02:07.710Z,16.20
2019-01-24T11:04:38.141Z,14.20
2019-01-24T11:07:08.694Z,11.97
2019-01-24T11:09:39.283Z,15.00
2019-01-24T11:12:09.615Z,14.03
2019-01-24T11:14:40.298Z,12.73
2019-01-24T11:17:10.761Z,16.10
2019-01-24T11:19:41.482Z,12.63
2019-01-24T11:22:11.773Z,13.70
2019-01-24T11:24:42.213Z,12.30
2019-01-24T11:27:12.819Z,12.57
2019-01-24T11:29:43.149Z,15.17
2019-01-24T11:32:13.442Z,10.80
2019-01-24T11:34:44.293Z,9.77
2019-01-24T11:37:14.871Z,11.67
2019-01-24T11:39:45.241Z,10.60
2019-01-24T11:42:15.891Z,9.23
2019-01-24T11:44:46.567Z,15.67
2019-01-24T11:47:16.839Z,12.23
2019-01-24T11:49:47.779Z,15.60
2019-01-24T11:52:18.064Z,17.50
2019-01-24T11:54:48.899Z,17.97
2019-01-24T11:57:19.458Z,21.20
2019-01-24T11:59:49.787Z,29.87
2019-01-24T12:02:20.445Z,29.17
2019-01-24T12:04:50.872Z,35.07
2019-01-24T12:07:21.178Z,33.43
2019-01-24T12:09:51.756Z,23.97
2019-01-24T12:12:22.358Z,29.03
2019-01-24T12:14:52.702Z,25.07
2019-01-24T12:17:23.103Z,22.67
2019-01-24T12:19:53.742Z,13.20
2019-01-24T12:22:24.154Z,17.17
2019-01-24T12:24:54.901Z,19.03
2019-01-24T12:27:25.197Z,16.60
2019-01-24T12:29:55.990Z,18.67
2019-01-24T12:32:26.610Z,18.57
2019-01-24T12:34:56.937Z,27.50
2019-01-24T12:37:27.299Z,29.20
2019-01-24T12:39:57.892Z,29.23
2019-01-24T12:42:28.289Z,31.73
2019-01-24T12:44:58.846Z,19.93
2019-01-24T12:47:29.559Z,15.30
2019-01-24T12:49:59.893Z,15.07
2019-01-24T12:52:30.166Z,16.90
2019-01-24T12:55:00.900Z,13.13
2019-01-24T12:57:31.431Z,17.03
2019-01-24T13:00:01.782Z,15.47
2019-01-24T13:02:32.445Z,16.23
2019-01-24T13:05:03.363Z,16.80
2019-01-24T13:07:33.646Z,15.43
2019-01-24T13:10:05.220Z,15.30
2019-01-24T13:12:35.581Z,11.57
2019-01-24T13:15:06.973Z,16.07
2019-01-24T13:17:37.307Z,14.10
2019-01-24T13:20:10.286Z,12.53
2019-01-24T13:22:40.560Z,12.37
2019-01-24T13:25:13.766Z,15.40
2019-01-24T13:27:44.229Z,13.40
2019-01-24T13:30:17.528Z,15.43
2019-01-24T13:32:48.217Z,16.97
2019-01-24T13:35:18.823Z,18.80
2019-01-24T13:37:49.274Z,22.00
2019-01-24T13:40:21.806Z,18.83
2019-01-24T13:42:52.147Z,15.33
2019-01-24T13:45:27.805Z,17.57
2019-01-24T13:47:58.283Z,18.80
2019-01-24T13:50:28.587Z,15.47
2019-01-24T13:52:58.888Z,17.97
2019-01-24T13:55:30.619Z,13.10
2019-01-24T13:58:01.211Z,14.60
2019-01-24T14:00:42.130Z,13.30
2019-01-24T14:03:25.461Z,18.03
2019-01-24T14:05:56.380Z,17.67
2019-01-24T14:08:26.972Z,15.73
2019-01-24T14:10:58.258Z,16.67
2019-01-24T14:13:28.651Z,18.10
2019-01-24T14:15:59.563Z,19.23
2019-01-24T14:18:29.948Z,16.73
2019-01-24T14:21:00.289Z,19.37
2019-01-24T14:23:30.886Z,20.07
2019-01-24T14:26:01.534Z,19.10
2019-01-24T14:28:31.838Z,24.73
2019-01-24T14:31:02.645Z,24.33
2019-01-24T14:33:32.932Z,24.50
2019-01-24T14:36:03.776Z,27.13
2019-01-24T14:38:34.315Z,27.23
2019-01-24T14:41:04.662Z,18.37
2019-01-24T14:43:35.446Z,20.90
2019-01-24T14:46:06.456Z,17.03
2019-01-24T14:48:36.724Z,18.20
2019-01-24T14:51:07.125Z,22.97
2019-01-24T14:53:37.484Z,14.60
2019-01-24T14:56:07.984Z,13.13
2019-01-24T14:58:38.447Z,13.63
2019-01-24T15:01:14.959Z,15.53
2019-01-24T15:03:45.808Z,18.00
2019-01-24T15:06:16.465Z,19.30
2019-01-24T15:08:46.827Z,21.60
2019-01-24T15:11:17.703Z,25.17
2019-01-24T15:13:48.363Z,17.90
2019-01-24T15:16:19.139Z,17.40
2019-01-24T15:18:49.493Z,16.63
2019-01-24T15:21:20.382Z,24.67
2019-01-24T15:23:50.789Z,23.23
2019-01-24T15:26:21.164Z,23.83
2019-01-24T15:28:51.732Z,22.03
2019-01-24T15:31:22.163Z,25.23
2019-01-24T15:33:52.461Z,21.33
2019-01-24T15:36:23.291Z,24.80
2019-01-24T15:38:53.841Z,25.03
2019-01-24T15:41:24.529Z,29.43
2019-01-24T15:43:54.806Z,31.53
2019-01-24T15:46:25.417Z,33.43
2019-01-24T15:48:56.075Z,37.13
2019-01-24T15:51:26.521Z,32.33
2019-01-24T15:53:56.800Z,31.50
2019-01-24T15:56:27.215Z,50.23
2019-01-24T15:58:57.747Z,24.43
2019-01-24T16:01:28.319Z,22.33
2019-01-24T16:03:58.942Z,27.13
2019-01-24T16:06:29.500Z,25.30
2019-01-24T16:08:59.986Z,28.43
2019-01-24T16:11:30.595Z,24.03
2019-01-24T16:14:01.436Z,27.20
2019-01-24T16:16:32.430Z,30.20
2019-01-24T16:19:02.866Z,27.37
2019-01-24T16:21:33.324Z,26.07
2019-01-24T16:24:04.108Z,29.87
2019-01-24T16:26:34.518Z,30.63
2019-01-24T16:29:04.898Z,18.00
2019-01-24T16:31:35.670Z,15.43
2019-01-24T16:34:06.511Z,18.77
2019-01-24T16:36:37.794Z,22.20
2019-01-24T16:39:10.035Z,21.93
2019-01-24T16:41:40.453Z,24.87
2019-01-24T16:44:11.108Z,27.23
2019-01-24T16:46:41.766Z,22.23
2019-01-24T16:49:12.056Z,18.70
2019-01-24T16:51:42.691Z,19.37
2019-01-24T16:54:13.361Z,21.80
2019-01-24T16:56:43.726Z,22.93
2019-01-24T16:59:14.227Z,20.23
2019-01-24T17:01:44.960Z,19.03
2019-01-24T17:04:15.293Z,18.97
2019-01-24T17:06:45.592Z,22.03
2019-01-24T17:09:16.422Z,24.37
2019-01-24T17:11:46.725Z,26.10
2019-01-24T17:14:22.254Z,19.90
2019-01-24T17:16:49.423Z,19.47
2019-01-24T17:19:19.945Z,18.80
2019-01-24T17:21:50.221Z,22.30
2019-01-24T17:24:20.988Z,18.07
2019-01-24T17:26:51.361Z,15.40
2019-01-24T17:29:21.657Z,22.17
2019-01-24T17:31:52.594Z,20.00
2019-01-24T17:34:23.141Z,22.13
2019-01-24T17:36:53.582Z,18.10
2019-01-24T17:39:24.215Z,18.87
2019-01-24T17:41:54.882Z,17.53
2019-01-24T17:44:25.165Z,22.40
2019-01-24T17:46:56.002Z,65.83
2019-01-24T17:49:26.289Z,25.13
2019-01-24T17:51:57.247Z,22.83
2019-01-24T17:54:27.877Z,18.00
2019-01-24T17:56:58.200Z,22.37
2019-01-24T17:59:28.749Z,20.43
2019-01-24T18:01:59.407Z,22.93
2019-01-24T18:04:29.691Z,28.63
2019-01-24T18:07:00.290Z,22.90
2019-01-24T18:09:30.956Z,27.77
2019-01-24T18:12:01.289Z,43.60
2019-01-24T18:14:31.833Z,43.10
2019-01-24T18:17:02.856Z,30.83
2019-01-24T18:19:33.292Z,32.70
2019-01-24T18:22:04.057Z,33.87
2019-01-24T18:24:34.456Z,33.17
2019-01-24T18:27:04.924Z,23.03
2019-01-24T18:29:35.617Z,27.73
2019-01-24T18:32:06.298Z,22.70
2019-01-24T18:34:36.591Z,20.23
2019-01-24T18:37:07.293Z,15.27
2019-01-24T18:39:37.787Z,17.37
2019-01-24T18:42:08.165Z,18.87
2019-01-24T18:44:38.938Z,22.07
2019-01-24T18:47:09.996Z,19.23
2019-01-24T18:49:40.678Z,23.97
2019-01-24T18:52:11.164Z,17.70
2019-01-24T18:54:41.468Z,17.83
2019-01-24T18:57:12.350Z,20.43
2019-01-24T18:59:42.753Z,18.33
2019-01-24T19:02:13.090Z,19.23
2019-01-24T19:04:43.835Z,21.00
2019-01-24T19:07:14.509Z,20.63
2019-01-24T19:09:44.799Z,23.20
2019-01-24T19:12:15.367Z,20.17
2019-01-24T19:14:46.928Z,15.93
2019-01-24T19:17:17.489Z,16.87
2019-01-24T19:19:47.843Z,17.77
2019-01-24T19:22:19.248Z,14.03
2019-01-24T19:24:49.624Z,19.80
2019-01-24T19:27:20.047Z,17.60
2019-01-24T19:29:50.309Z,19.43
2019-01-24T19:32:20.863Z,18.00
2019-01-24T19:34:51.647Z,15.87
2019-01-24T19:37:21.961Z,11.47
2019-01-24T19:39:52.308Z,12.87
2019-01-24T19:42:22.848Z,16.93
2019-01-24T19:44:53.207Z,14.40
2019-01-24T19:47:23.927Z,16.33
2019-01-24T19:49:54.677Z,24.73
2019-01-24T19:52:25.021Z,19.40
2019-01-24T19:54:55.676Z,13.17
2019-01-24T19:57:26.282Z,11.83
2019-01-24T19:59:56.815Z,13.87
2019-01-24T20:02:27.642Z,11.63
2019-01-24T20:04:57.958Z,16.33
2019-01-24T20:07:28.512Z,12.40
2019-01-24T20:09:59.277Z,18.67
2019-01-24T20:12:29.620Z,11.33
2019-01-24T20:14:59.954Z,11.37
2019-01-24T20:17:30.954Z,13.37
2019-01-24T20:20:01.468Z,10.27
2019-01-24T20:22:32.774Z,16.13
2019-01-24T20:25:03.559Z,16.70
2019-01-24T20:27:34.022Z,14.23
2019-01-24T20:30:05.208Z,15.53
2019-01-24T20:32:35.518Z,13.77
2019-01-24T20:35:07.164Z,15.43
2019-01-24T20:37:37.570Z,16.87
2019-01-24T20:40:08.774Z,14.60
2019-01-24T20:42:39.188Z,14.20
2019-01-24T20:45:13.269Z,18.13
2019-01-24T20:47:44.225Z,18.13
2019-01-24T20:50:14.870Z,17.13
2019-01-24T20:52:46.777Z,12.93
2019-01-24T20:55:17.285Z,18.27
2019-01-24T20:57:47.775Z,12.23
2019-01-24T21:00:20.417Z,16.50
2019-01-24T21:02:52.196Z,18.03
2019-01-24T21:05:23.309Z,17.47
2019-01-24T21:07:54.316Z,18.23
2019-01-24T21:10:25.785Z,14.47
2019-01-24T21:12:56.481Z,15.83
2019-01-24T21:15:27.276Z,17.73
2019-01-24T21:17:57.681Z,15.27
2019-01-24T21:20:28.960Z,17.50
2019-01-24T21:22:59.830Z,19.73
2019-01-24T21:25:30.501Z,17.90
2019-01-24T21:28:00.871Z,16.30
2019-01-24T21:30:33.423Z,14.47
2019-01-24T21:33:04.446Z,21.10
2019-01-24T21:35:35.723Z,18.30
2019-01-24T21:38:08.134Z,24.53
2019-01-24T21:40:38.691Z,21.93
2019-01-24T21:43:09.074Z,18.97
2019-01-24T21:45:39.778Z,14.63
2019-01-24T21:48:10.218Z,12.83
2019-01-24T21:50:44.850Z,11.73
2019-01-24T21:53:15.762Z,11.53
2019-01-24T21:55:46.147Z,9.30
2019-01-24T21:58:16.639Z,11.03
2019-01-24T22:00:47.150Z,10.43
2019-01-24T22:03:17.489Z,10.90
2019-01-24T22:05:48.159Z,14.10
2019-01-24T22:08:39.077Z,12.50
2019-01-24T22:11:09.378Z,12.20
2019-01-24T22:13:39.983Z,12.23
2019-01-24T22:16:11.109Z,13.97
2019-01-24T22:18:41.391Z,12.57
2019-01-24T22:21:11.907Z,11.97
2019-01-24T22:23:42.389Z,13.10
2019-01-24T22:26:12.862Z,12.60
2019-01-24T22:28:43.146Z,13.17
2019-01-24T22:31:13.935Z,13.83
2019-01-24T22:33:44.221Z,10.00
2019-01-24T22:36:15.237Z,12.03
2019-01-24T22:38:45.532Z,13.30
2019-01-24T22:41:15.948Z,10.20
2019-01-24T22:43:46.644Z,11.33
2019-01-24T22:46:17.256Z,10.00
2019-01-24T22:48:47.532Z,9.83
2019-01-24T22:51:18.078Z,14.60
2019-01-24T22:53:48.363Z,13.47
2019-01-24T22:56:18.665Z,17.07
2019-01-24T22:58:49.145Z,19.17
2019-01-24T23:01:48.667Z,23.87
2019-01-24T23:04:21.764Z,17.57
2019-01-24T23:06:52.683Z,20.67
2019-01-24T23:09:23.072Z,19.03
2019-01-24T23:11:53.880Z,21.40
2019-01-24T23:14:24.197Z,22.77
2019-01-24T23:16:54.778Z,23.03
2019-01-24T23:19:26.532Z,20.83
2019-01-24T23:21:57.059Z,22.30
2019-01-24T23:24:27.357Z,18.57
2019-01-24T23:26:57.760Z,18.80
2019-01-24T23:29:28.543Z,17.93
2019-01-24T23:31:58.867Z,19.70
2019-01-24T23:34:29.598Z,19.73
2019-01-24T23:37:00.169Z,20.37
2019-01-24T23:39:30.447Z,16.63
2019-01-24T23:42:01.255Z,18.03
2019-01-24T23:44:32.039Z,14.17
2019-01-24T23:47:02.473Z,20.73
2019-01-24T23:49:32.838Z,21.97
2019-01-24T23:52:03.670Z,21.47
2019-01-24T23:54:33.931Z,22.77
2019-01-24T23:57:05.629Z,23.03
2019-01-24T23:59:36.133Z,21.67
